createdAt,value
2024-01-31T00:00:02.688Z,1026.4
2024-01-31T00:01:08.837Z,1026.4
2024-01-31T00:02:14.991Z,1026.4
2024-01-31T00:03:21.168Z,1026.4
2024-01-31T00:04:27.321Z,1026.4
2024-01-31T00:05:32.580Z,1026.4
2024-01-31T00:06:38.653Z,1026.5
2024-01-31T00:07:44.826Z,1026.5
2024-01-31T00:08:50.982Z,1026.5
2024-01-31T00:09:57.141Z,1026.5
2024-01-31T00:11:03.364Z,1026.6
2024-01-31T00:12:09.463Z,1026.5
2024-01-31T00:13:15.633Z,1026.5
2024-01-31T00:14:21.885Z,1026.5
2024-01-31T00:15:27.985Z,1026.5
2024-01-31T00:16:34.105Z,1026.5
2024-01-31T00:17:40.343Z,1026.5
2024-01-31T00:18:46.433Z,1026.5
2024-01-31T00:19:51.612Z,1026.6
2024-01-31T00:20:57.856Z,1026.5
2024-01-31T00:22:03.936Z,1026.5
2024-01-31T00:23:10.080Z,1026.5
2024-01-31T00:24:16.271Z,1026.5
2024-01-31T00:25:22.417Z,1026.5
2024-01-31T00:26:28.579Z,1026.5
2024-01-31T00:27:34.767Z,1026.5
2024-01-31T00:28:40.930Z,1026.5
2024-01-31T00:29:47.066Z,1026.5
2024-01-31T00:30:53.221Z,1026.5
2024-01-31T00:31:59.382Z,1026.5
2024-01-31T00:33:05.681Z,1026.5
2024-01-31T00:34:10.730Z,1026.5
2024-01-31T00:35:16.937Z,1026.5
2024-01-31T00:36:23.142Z,1026.4
2024-01-31T00:37:29.208Z,1026.4
2024-01-31T00:38:35.366Z,1026.4
2024-01-31T00:39:41.527Z,1026.4
2024-01-31T00:40:47.695Z,1026.4
2024-01-31T00:41:53.854Z,1026.4
2024-01-31T00:43:00.004Z,1026.4
2024-01-31T00:44:06.171Z,1026.4
2024-01-31T00:45:12.331Z,1026.5
2024-01-31T00:46:18.545Z,1026.4
2024-01-31T00:47:24.717Z,1026.4
2024-01-31T00:48:29.840Z,1026.4
2024-01-31T00:49:36.072Z,1026.4
2024-01-31T00:50:42.167Z,1026.4
2024-01-31T00:51:48.363Z,1026.5
2024-01-31T00:52:54.478Z,1026.5
2024-01-31T00:54:00.741Z,1026.5
2024-01-31T00:55:06.798Z,1026.5
2024-01-31T00:56:12.959Z,1026.5
2024-01-31T00:57:19.203Z,1026.5
2024-01-31T00:58:25.292Z,1026.5
2024-01-31T00:59:31.441Z,1026.4
2024-01-31T01:00:37.803Z,1026.5
2024-01-31T01:01:43.780Z,1026.4
2024-01-31T01:02:48.947Z,1026.5
2024-01-31T01:03:55.138Z,1026.4
2024-01-31T01:05:01.347Z,1026.5
2024-01-31T01:06:07.420Z,1026.5
2024-01-31T01:07:13.633Z,1026.5
2024-01-31T01:08:19.767Z,1026.5
2024-01-31T01:09:25.921Z,1026.5
2024-01-31T01:10:32.129Z,1026.6
2024-01-31T01:11:38.253Z,1026.6
2024-01-31T01:12:44.414Z,1026.6
2024-01-31T01:13:50.560Z,1026.6
2024-01-31T01:14:56.851Z,1026.6
2024-01-31T01:16:02.897Z,1026.6
2024-01-31T01:17:08.068Z,1026.7
2024-01-31T01:18:14.236Z,1026.7
2024-01-31T01:19:20.391Z,1026.7
2024-01-31T01:20:26.579Z,1026.7
2024-01-31T01:21:32.749Z,1026.8
2024-01-31T01:22:38.869Z,1026.7
2024-01-31T01:23:45.026Z,1026.8
2024-01-31T01:24:51.201Z,1026.8
2024-01-31T01:25:57.358Z,1026.9
2024-01-31T01:27:03.582Z,1026.8
2024-01-31T01:28:09.690Z,1026.8
2024-01-31T01:29:15.857Z,1026.9
2024-01-31T01:30:22.045Z,1026.8
2024-01-31T01:31:27.313Z,1026.8
2024-01-31T01:32:33.470Z,1026.8
2024-01-31T01:33:39.500Z,1026.9
2024-01-31T01:34:45.657Z,1026.9
2024-01-31T01:35:51.816Z,1026.9
2024-01-31T01:36:57.983Z,1026.8
2024-01-31T01:38:04.149Z,1026.8
2024-01-31T01:39:10.346Z,1026.8
2024-01-31T01:40:16.471Z,1026.9
2024-01-31T01:41:22.626Z,1026.9
2024-01-31T01:42:28.791Z,1026.8
2024-01-31T01:43:34.942Z,1026.9
2024-01-31T01:44:41.104Z,1026.9
2024-01-31T01:45:46.287Z,1027
2024-01-31T01:46:52.451Z,1026.9
2024-01-31T01:47:58.612Z,1027
2024-01-31T01:49:04.779Z,1027
2024-01-31T01:50:10.940Z,1027
2024-01-31T01:51:17.090Z,1027
2024-01-31T01:52:23.268Z,1027.1
2024-01-31T01:53:29.404Z,1027.1
2024-01-31T01:54:35.588Z,1027.1
2024-01-31T01:55:41.746Z,1027
2024-01-31T01:56:47.941Z,1027
2024-01-31T01:57:54.059Z,1027.1
2024-01-31T01:59:00.233Z,1027.1
2024-01-31T02:00:05.395Z,1027
2024-01-31T02:01:11.565Z,1027
2024-01-31T02:02:17.735Z,1027.1
2024-01-31T02:03:23.884Z,1027.1
2024-01-31T02:04:30.034Z,1027.1
2024-01-31T02:05:36.202Z,1027.2
2024-01-31T02:06:42.370Z,1027.1
2024-01-31T02:07:48.526Z,1027.2
2024-01-31T02:08:54.684Z,1027.2
2024-01-31T02:10:00.857Z,1027.2
2024-01-31T02:11:07.009Z,1027.1
2024-01-31T02:12:13.209Z,1027.2
2024-01-31T02:13:19.342Z,1027.1
2024-01-31T02:14:24.508Z,1027.1
2024-01-31T02:15:30.671Z,1027.2
2024-01-31T02:16:36.837Z,1027.2
2024-01-31T02:17:42.991Z,1027.1
2024-01-31T02:18:49.150Z,1027.1
2024-01-31T02:19:55.313Z,1027.2
2024-01-31T02:21:01.477Z,1027.2
2024-01-31T02:22:07.637Z,1027.2
2024-01-31T02:23:13.909Z,1027.2
2024-01-31T02:24:19.946Z,1027.2
2024-01-31T02:25:26.126Z,1027.2
2024-01-31T02:26:32.295Z,1027.2
2024-01-31T02:27:38.442Z,1027.2
2024-01-31T02:28:43.624Z,1027.2
2024-01-31T02:29:49.799Z,1027.2
2024-01-31T02:30:55.949Z,1027.3
2024-01-31T02:32:02.103Z,1027.2
2024-01-31T02:33:08.270Z,1027.3
2024-01-31T02:34:14.428Z,1027.2
2024-01-31T02:35:19.614Z,1027.2
2024-01-31T02:36:25.770Z,1027.2
2024-01-31T02:37:31.917Z,1027.2
2024-01-31T02:38:38.087Z,1027.2
2024-01-31T02:39:44.244Z,1027.2
2024-01-31T02:40:50.407Z,1027.2
2024-01-31T02:41:56.572Z,1027.2
2024-01-31T02:43:02.749Z,1027.2
2024-01-31T02:44:08.894Z,1027.2
2024-01-31T02:45:15.170Z,1027.2
2024-01-31T02:46:21.215Z,1027.2
2024-01-31T02:47:27.375Z,1027.2
2024-01-31T02:48:33.600Z,1027.1
2024-01-31T02:49:38.716Z,1027.2
2024-01-31T02:50:44.885Z,1027.1
2024-01-31T02:51:51.038Z,1027.1
2024-01-31T02:52:57.207Z,1027.2
2024-01-31T02:54:03.363Z,1027.2
2024-01-31T02:55:09.512Z,1027.2
2024-01-31T02:56:15.706Z,1027.2
2024-01-31T02:57:21.930Z,1027.2
2024-01-31T02:58:28.022Z,1027.2
2024-01-31T02:59:34.237Z,1027.1
2024-01-31T03:00:40.344Z,1027.1
2024-01-31T03:01:46.487Z,1027.1
2024-01-31T03:02:52.668Z,1027.2
2024-01-31T03:03:57.855Z,1027.1
2024-01-31T03:06:10.163Z,1027.2
2024-01-31T03:07:16.308Z,1027.2
2024-01-31T03:08:22.610Z,1027.1
2024-01-31T03:09:28.643Z,1027.1
2024-01-31T03:10:34.789Z,1027.1
2024-01-31T03:11:40.959Z,1027.1
2024-01-31T03:12:47.180Z,1027.1
2024-01-31T03:13:53.273Z,1027.1
2024-01-31T03:14:59.447Z,1027.1
2024-01-31T03:16:05.594Z,1027.1
2024-01-31T03:17:11.768Z,1027.1
2024-01-31T03:18:16.952Z,1027.1
2024-01-31T03:19:23.098Z,1027.1
2024-01-31T03:20:29.289Z,1027.1
2024-01-31T03:21:35.434Z,1027.1
2024-01-31T03:22:41.610Z,1027.1
2024-01-31T03:23:47.760Z,1027.1
2024-01-31T03:24:53.912Z,1027.1
2024-01-31T03:26:00.079Z,1027.1
2024-01-31T03:27:06.259Z,1027.1
2024-01-31T03:28:12.385Z,1027.1
2024-01-31T03:29:18.566Z,1027.2
2024-01-31T03:30:24.717Z,1027.1
2024-01-31T03:31:30.877Z,1027.1
2024-01-31T03:32:36.057Z,1027.1
2024-01-31T03:33:42.299Z,1027.1
2024-01-31T03:34:48.387Z,1027
2024-01-31T03:35:54.552Z,1027
2024-01-31T03:37:00.699Z,1027
2024-01-31T03:38:06.930Z,1026.9
2024-01-31T03:39:13.027Z,1026.9
2024-01-31T03:40:19.456Z,1027
2024-01-31T03:41:25.350Z,1026.9
2024-01-31T03:42:31.616Z,1026.9
2024-01-31T03:43:37.678Z,1026.9
2024-01-31T03:44:43.838Z,1026.9
2024-01-31T03:45:49.990Z,1026.9
2024-01-31T03:46:55.168Z,1026.9
2024-01-31T03:48:01.344Z,1026.9
2024-01-31T03:49:07.495Z,1026.9
2024-01-31T03:50:13.660Z,1026.9
2024-01-31T03:51:19.818Z,1026.9
2024-01-31T03:52:25.972Z,1026.9
2024-01-31T03:53:32.147Z,1026.9
2024-01-31T03:54:38.301Z,1027
2024-01-31T03:55:44.459Z,1026.9
2024-01-31T03:56:50.663Z,1027
2024-01-31T03:57:56.801Z,1026.9
2024-01-31T03:59:03.069Z,1026.9
2024-01-31T04:00:09.100Z,1026.9
2024-01-31T04:01:14.273Z,1026.9
2024-01-31T04:02:20.442Z,1026.8
2024-01-31T04:03:26.665Z,1026.8
2024-01-31T04:04:32.769Z,1026.8
2024-01-31T04:05:38.927Z,1026.8
2024-01-31T04:06:45.086Z,1026.7
2024-01-31T04:07:51.235Z,1026.8
2024-01-31T04:08:57.481Z,1026.7
2024-01-31T04:10:03.618Z,1026.8
2024-01-31T04:11:09.740Z,1026.9
2024-01-31T04:12:15.958Z,1027
2024-01-31T04:13:22.050Z,1026.9
2024-01-31T04:14:28.237Z,1027
2024-01-31T04:15:34.413Z,1027
2024-01-31T04:16:39.580Z,1027
2024-01-31T04:17:45.713Z,1027
2024-01-31T04:18:51.874Z,1027
2024-01-31T04:19:58.028Z,1027
2024-01-31T04:21:04.195Z,1027
2024-01-31T04:22:10.363Z,1027
2024-01-31T04:23:16.571Z,1027
2024-01-31T04:24:22.688Z,1027
2024-01-31T04:25:28.846Z,1027.1
2024-01-31T04:26:34.997Z,1027.1
2024-01-31T04:27:41.185Z,1027.1
2024-01-31T04:28:47.323Z,1027.1
2024-01-31T04:29:53.503Z,1027
2024-01-31T04:30:58.676Z,1027.1
2024-01-31T04:32:04.852Z,1027.1
2024-01-31T04:33:10.993Z,1027.1
2024-01-31T04:34:17.146Z,1027.1
2024-01-31T04:35:23.308Z,1027.1
2024-01-31T04:36:29.498Z,1027.1
2024-01-31T04:37:35.629Z,1027.1
2024-01-31T04:38:41.787Z,1027.1
2024-01-31T04:39:47.959Z,1027.1
2024-01-31T04:40:54.138Z,1027.1
2024-01-31T04:42:00.282Z,1027.1
2024-01-31T04:43:06.430Z,1027.2
2024-01-31T04:44:12.596Z,1027.2
2024-01-31T04:45:17.832Z,1027.1
2024-01-31T04:46:23.941Z,1027.1
2024-01-31T04:47:30.094Z,1027
2024-01-31T04:48:36.257Z,1027
2024-01-31T04:49:42.436Z,1027
2024-01-31T04:50:48.667Z,1027
2024-01-31T04:51:54.741Z,1027
2024-01-31T04:53:01.028Z,1027
2024-01-31T04:54:07.176Z,1027
2024-01-31T04:55:13.459Z,1027
2024-01-31T04:56:19.391Z,1027
2024-01-31T04:57:25.585Z,1026.9
2024-01-31T04:58:31.820Z,1026.9
2024-01-31T04:59:36.969Z,1026.9
2024-01-31T05:00:43.073Z,1026.9
2024-01-31T05:01:49.214Z,1026.9
2024-01-31T05:02:55.382Z,1026.9
2024-01-31T05:04:01.536Z,1026.9
2024-01-31T05:05:07.692Z,1026.8
2024-01-31T05:06:13.865Z,1026.8
2024-01-31T05:07:20.128Z,1026.9
2024-01-31T05:08:26.200Z,1026.9
2024-01-31T05:09:32.475Z,1026.8
2024-01-31T05:10:38.512Z,1026.9
2024-01-31T05:11:44.688Z,1026.9
2024-01-31T05:12:50.831Z,1026.9
2024-01-31T05:13:56.086Z,1026.9
2024-01-31T05:15:02.224Z,1026.9
2024-01-31T05:16:08.383Z,1026.8
2024-01-31T05:17:14.489Z,1026.9
2024-01-31T05:18:20.661Z,1026.9
2024-01-31T05:19:26.815Z,1026.9
2024-01-31T05:20:32.992Z,1026.9
2024-01-31T05:21:39.156Z,1026.8
2024-01-31T05:22:45.297Z,1026.8
2024-01-31T05:23:51.509Z,1026.8
2024-01-31T05:24:57.758Z,1026.8
2024-01-31T05:26:03.847Z,1026.8
2024-01-31T05:27:10.000Z,1026.8
2024-01-31T05:28:15.120Z,1026.8
2024-01-31T05:29:21.281Z,1026.8
2024-01-31T05:30:27.437Z,1026.8
2024-01-31T05:31:33.593Z,1026.8
2024-01-31T05:32:39.759Z,1026.9
2024-01-31T05:33:45.935Z,1026.8
2024-01-31T05:34:52.096Z,1026.9
2024-01-31T05:35:58.232Z,1026.9
2024-01-31T05:37:04.394Z,1026.9
2024-01-31T05:38:10.577Z,1027
2024-01-31T05:39:16.761Z,1027
2024-01-31T05:40:22.884Z,1026.9
2024-01-31T05:41:29.063Z,1026.9
2024-01-31T05:42:34.342Z,1026.9
2024-01-31T05:43:40.386Z,1026.9
2024-01-31T05:44:46.554Z,1026.9
2024-01-31T05:45:52.716Z,1027
2024-01-31T05:46:58.896Z,1027
2024-01-31T05:48:05.073Z,1027
2024-01-31T05:49:11.211Z,1027
2024-01-31T05:50:17.350Z,1027
2024-01-31T05:51:23.526Z,1026.9
2024-01-31T05:52:29.790Z,1026.9
2024-01-31T05:53:35.836Z,1026.9
2024-01-31T05:54:42.013Z,1027
2024-01-31T05:55:48.166Z,1027
2024-01-31T05:56:53.337Z,1026.9
2024-01-31T05:57:59.586Z,1026.9
2024-01-31T05:59:05.651Z,1026.9
2024-01-31T06:00:11.929Z,1026.9
2024-01-31T06:01:17.976Z,1026.9
2024-01-31T06:02:24.153Z,1026.9
2024-01-31T06:03:30.381Z,1026.9
2024-01-31T06:04:36.489Z,1027
2024-01-31T06:05:42.617Z,1026.9
2024-01-31T06:06:48.801Z,1026.9
2024-01-31T06:09:01.207Z,1026.9
2024-01-31T06:10:07.260Z,1026.9
2024-01-31T06:11:12.501Z,1026.9
2024-01-31T06:12:18.654Z,1027
2024-01-31T06:13:24.803Z,1026.9
2024-01-31T06:14:31.013Z,1026.9
2024-01-31T06:15:37.118Z,1027
2024-01-31T06:16:42.364Z,1026.9
2024-01-31T06:17:48.415Z,1027
2024-01-31T06:18:54.647Z,1026.9
2024-01-31T06:20:00.762Z,1027
2024-01-31T06:21:06.920Z,1026.9
2024-01-31T06:22:13.075Z,1026.9
2024-01-31T06:23:19.286Z,1026.9
2024-01-31T06:24:25.400Z,1026.9
2024-01-31T06:25:31.561Z,1026.9
2024-01-31T06:26:37.738Z,1026.9
2024-01-31T06:27:43.881Z,1026.9
2024-01-31T06:28:50.177Z,1026.9
2024-01-31T06:29:56.327Z,1026.9
2024-01-31T06:31:01.459Z,1026.9
2024-01-31T06:32:07.538Z,1026.8
2024-01-31T06:33:13.719Z,1026.8
2024-01-31T06:34:19.886Z,1026.8
2024-01-31T06:35:26.080Z,1026.9
2024-01-31T06:36:32.235Z,1026.8
2024-01-31T06:37:38.449Z,1026.8
2024-01-31T06:38:44.556Z,1026.8
2024-01-31T06:39:50.717Z,1026.8
2024-01-31T06:40:56.909Z,1026.8
2024-01-31T06:42:02.983Z,1026.8
2024-01-31T06:43:09.161Z,1026.8
2024-01-31T06:44:15.321Z,1026.8
2024-01-31T06:45:20.529Z,1026.8
2024-01-31T06:46:26.653Z,1026.9
2024-01-31T06:47:32.821Z,1026.9
2024-01-31T06:48:39.049Z,1026.9
2024-01-31T06:49:45.145Z,1026.9
2024-01-31T06:50:51.288Z,1026.9
2024-01-31T06:51:57.499Z,1026.9
2024-01-31T06:53:03.726Z,1026.9
2024-01-31T06:54:09.944Z,1026.9
2024-01-31T06:55:15.946Z,1026.8
2024-01-31T06:56:22.099Z,1026.9
2024-01-31T06:57:28.259Z,1026.9
2024-01-31T06:58:34.441Z,1026.9
2024-01-31T06:59:39.605Z,1026.9
2024-01-31T07:00:45.847Z,1026.8
2024-01-31T07:01:52.125Z,1026.9
2024-01-31T07:02:58.184Z,1026.9
2024-01-31T07:04:04.258Z,1026.9
2024-01-31T07:05:10.476Z,1026.9
2024-01-31T07:06:16.718Z,1026.9
2024-01-31T07:07:22.739Z,1027
2024-01-31T07:08:28.904Z,1027
2024-01-31T07:09:35.110Z,1026.9
2024-01-31T07:10:41.216Z,1026.9
2024-01-31T07:11:47.383Z,1026.9
2024-01-31T07:12:53.558Z,1027
2024-01-31T07:13:58.718Z,1027
2024-01-31T07:15:04.876Z,1027
2024-01-31T07:16:11.129Z,1027
2024-01-31T07:17:17.186Z,1027
2024-01-31T07:18:23.363Z,1027
2024-01-31T07:19:29.541Z,1027
2024-01-31T07:20:35.706Z,1027
2024-01-31T07:21:41.852Z,1027.1
2024-01-31T07:22:48.024Z,1027.1
2024-01-31T07:23:54.180Z,1027.1
2024-01-31T07:25:00.388Z,1027.1
2024-01-31T07:26:06.491Z,1027.2
2024-01-31T07:27:12.770Z,1027.2
2024-01-31T07:28:17.843Z,1027.2
2024-01-31T07:29:24.003Z,1027.2
2024-01-31T07:30:30.144Z,1027.1
2024-01-31T07:31:36.322Z,1027.1
2024-01-31T07:32:42.524Z,1027.2
2024-01-31T07:33:48.642Z,1027.2
2024-01-31T07:34:54.794Z,1027.3
2024-01-31T07:36:00.965Z,1027.2
2024-01-31T07:37:07.120Z,1027.2
2024-01-31T07:38:13.294Z,1027.2
2024-01-31T07:39:19.462Z,1027.2
2024-01-31T07:40:25.638Z,1027.2
2024-01-31T07:41:31.775Z,1027.2
2024-01-31T07:42:36.941Z,1027.2
2024-01-31T07:43:43.119Z,1027.3
2024-01-31T07:44:49.322Z,1027.2
2024-01-31T07:45:55.469Z,1027.2
2024-01-31T07:47:01.613Z,1027.2
2024-01-31T07:48:07.758Z,1027.3
2024-01-31T07:49:13.983Z,1027.2
2024-01-31T07:50:20.078Z,1027.3
2024-01-31T07:51:26.235Z,1027.3
2024-01-31T07:52:32.429Z,1027.2
2024-01-31T07:53:38.558Z,1027.2
2024-01-31T07:54:44.723Z,1027.2
2024-01-31T07:55:50.876Z,1027.2
2024-01-31T07:56:56.136Z,1027.2
2024-01-31T07:58:02.221Z,1027.2
2024-01-31T07:59:08.371Z,1027.3
2024-01-31T08:00:14.538Z,1027.3
2024-01-31T08:01:20.740Z,1027.3
2024-01-31T08:02:26.861Z,1027.4
2024-01-31T08:03:33.036Z,1027.4
2024-01-31T08:04:39.224Z,1027.5
2024-01-31T08:05:45.421Z,1027.5
2024-01-31T08:06:51.766Z,1027.6
2024-01-31T08:07:57.783Z,1027.6
2024-01-31T08:09:03.970Z,1027.6
2024-01-31T08:10:10.094Z,1027.6
2024-01-31T08:11:15.288Z,1027.6
2024-01-31T08:12:21.465Z,1027.6
2024-01-31T08:13:27.766Z,1027.7
2024-01-31T08:14:33.990Z,1027.7
2024-01-31T08:15:40.110Z,1027.7
2024-01-31T08:16:46.312Z,1027.7
2024-01-31T08:17:52.147Z,1027.7
2024-01-31T08:18:58.486Z,1027.8
2024-01-31T08:20:04.788Z,1027.7
2024-01-31T08:21:10.822Z,1027.8
2024-01-31T08:22:17.133Z,1027.8
2024-01-31T08:23:23.042Z,1027.8
2024-01-31T08:24:29.337Z,1027.8
2024-01-31T08:25:34.295Z,1027.9
2024-01-31T08:26:40.761Z,1027.9
2024-01-31T08:27:46.610Z,1028
2024-01-31T08:28:52.859Z,1028
2024-01-31T08:29:59.218Z,1028
2024-01-31T08:31:05.293Z,1027.9
2024-01-31T08:32:11.263Z,1028
2024-01-31T08:33:17.409Z,1028
2024-01-31T08:34:23.567Z,1028
2024-01-31T08:35:29.746Z,1028
2024-01-31T08:36:35.886Z,1028
2024-01-31T08:37:42.066Z,1027.9
2024-01-31T08:38:48.222Z,1027.9
2024-01-31T08:39:53.402Z,1027.9
2024-01-31T08:40:59.571Z,1027.9
2024-01-31T08:42:05.711Z,1027.9
2024-01-31T08:43:11.871Z,1027.9
2024-01-31T08:44:18.024Z,1028
2024-01-31T08:45:24.210Z,1028
2024-01-31T08:46:30.373Z,1028.1
2024-01-31T08:47:36.521Z,1028.1
2024-01-31T08:48:42.682Z,1028.1
2024-01-31T08:49:48.849Z,1028.1
2024-01-31T08:50:55.003Z,1028.1
2024-01-31T08:52:01.280Z,1028
2024-01-31T08:53:07.319Z,1028
2024-01-31T08:54:12.496Z,1028.1
2024-01-31T08:55:18.658Z,1028
2024-01-31T08:56:24.813Z,1028.1
2024-01-31T08:57:30.982Z,1028.1
2024-01-31T08:58:37.139Z,1028.1
2024-01-31T08:59:43.297Z,1028.1
2024-01-31T09:00:49.461Z,1028.1
2024-01-31T09:01:55.623Z,1028.1
2024-01-31T09:03:01.795Z,1028
2024-01-31T09:04:07.931Z,1028
2024-01-31T09:05:14.103Z,1027.9
2024-01-31T09:06:20.270Z,1027.9
2024-01-31T09:07:26.446Z,1027.9
2024-01-31T09:08:31.602Z,1027.9
2024-01-31T09:09:37.760Z,1027.9
2024-01-31T09:10:43.926Z,1027.9
2024-01-31T09:11:50.092Z,1027.9
2024-01-31T09:12:56.252Z,1027.9
2024-01-31T09:14:02.405Z,1027.8
2024-01-31T09:15:08.569Z,1027.8
2024-01-31T09:16:14.745Z,1027.8
2024-01-31T09:17:20.886Z,1027.7
2024-01-31T09:18:27.052Z,1027.7
2024-01-31T09:19:33.392Z,1027.7
2024-01-31T09:20:39.373Z,1027.7
2024-01-31T09:21:45.525Z,1027.7
2024-01-31T09:22:50.720Z,1027.7
2024-01-31T09:23:56.879Z,1027.7
2024-01-31T09:25:03.038Z,1027.6
2024-01-31T09:26:09.208Z,1027.6
2024-01-31T09:27:15.362Z,1027.6
2024-01-31T09:28:21.521Z,1027.5
2024-01-31T09:29:27.678Z,1027.5
2024-01-31T09:30:33.845Z,1027.5
2024-01-31T09:31:40.097Z,1027.5
2024-01-31T09:32:46.225Z,1027.5
2024-01-31T09:33:52.334Z,1027.5
2024-01-31T09:34:58.488Z,1027.5
2024-01-31T09:36:04.646Z,1027.5
2024-01-31T09:37:09.842Z,1027.5
2024-01-31T09:38:15.982Z,1027.5
2024-01-31T09:39:22.146Z,1027.5
2024-01-31T09:40:28.317Z,1027.5
2024-01-31T09:41:34.519Z,1027.5
2024-01-31T09:42:40.623Z,1027.5
2024-01-31T09:43:46.788Z,1027.5
2024-01-31T09:44:52.951Z,1027.5
2024-01-31T09:45:59.116Z,1027.5
2024-01-31T09:47:05.399Z,1027.5
2024-01-31T09:48:11.459Z,1027.5
2024-01-31T09:49:17.655Z,1027.5
2024-01-31T09:51:29.935Z,1027.6
2024-01-31T09:52:35.098Z,1027.6
2024-01-31T09:53:41.318Z,1027.6
2024-01-31T09:54:47.500Z,1027.6
2024-01-31T09:55:53.594Z,1027.5
2024-01-31T09:56:59.754Z,1027.5
2024-01-31T09:58:04.983Z,1027.5
2024-01-31T09:59:11.160Z,1027.5
2024-01-31T10:00:17.521Z,1027.5
2024-01-31T10:01:23.660Z,1027.5
2024-01-31T10:02:29.665Z,1027.5
2024-01-31T10:03:36.048Z,1027.5
2024-01-31T10:04:42.156Z,1027.4
2024-01-31T10:05:48.333Z,1027.4
2024-01-31T10:06:54.441Z,1027.4
2024-01-31T10:08:00.570Z,1027.4
2024-01-31T10:09:06.790Z,1027.4
2024-01-31T10:10:13.032Z,1027.4
2024-01-31T10:11:19.184Z,1027.3
2024-01-31T10:12:24.198Z,1027.3
2024-01-31T10:13:30.472Z,1027.3
2024-01-31T10:14:36.353Z,1027.3
2024-01-31T10:15:42.521Z,1027.4
2024-01-31T10:16:48.674Z,1027.4
2024-01-31T10:17:54.837Z,1027.4
2024-01-31T10:19:00.987Z,1027.4
2024-01-31T10:20:07.458Z,1027.4
2024-01-31T10:21:13.522Z,1027.4
2024-01-31T10:22:19.743Z,1027.3
2024-01-31T10:23:25.731Z,1027.3
2024-01-31T10:24:32.044Z,1027.3
2024-01-31T10:25:38.238Z,1027.3
2024-01-31T10:26:43.371Z,1027.2
2024-01-31T10:27:49.463Z,1027.2
2024-01-31T10:28:55.651Z,1027.2
2024-01-31T10:30:01.932Z,1027.2
2024-01-31T10:31:07.929Z,1027.3
2024-01-31T10:32:13.948Z,1027.2
2024-01-31T10:33:20.110Z,1027.2
2024-01-31T10:34:26.286Z,1027.2
2024-01-31T10:35:32.435Z,1027.2
2024-01-31T10:36:38.601Z,1027.2
2024-01-31T10:37:44.757Z,1027.2
2024-01-31T10:38:50.912Z,1027.2
2024-01-31T10:39:57.092Z,1027.2
2024-01-31T10:41:02.305Z,1027.1
2024-01-31T10:42:08.487Z,1027.1
2024-01-31T10:43:14.577Z,1027.1
2024-01-31T10:44:20.932Z,1027.1
2024-01-31T10:45:27.097Z,1027.1
2024-01-31T10:46:33.295Z,1027
2024-01-31T10:47:39.482Z,1026.9
2024-01-31T10:48:45.545Z,1026.9
2024-01-31T10:49:51.870Z,1026.8
2024-01-31T10:50:57.972Z,1026.8
2024-01-31T10:52:04.149Z,1026.7
2024-01-31T10:53:10.409Z,1026.7
2024-01-31T10:54:16.185Z,1026.7
2024-01-31T10:55:21.664Z,1026.7
2024-01-31T10:56:27.878Z,1026.7
2024-01-31T10:57:33.940Z,1026.7
2024-01-31T10:58:40.160Z,1026.7
2024-01-31T10:59:46.072Z,1026.7
2024-01-31T11:00:52.368Z,1026.7
2024-01-31T11:01:58.649Z,1026.8
2024-01-31T11:03:04.749Z,1026.7
2024-01-31T11:04:10.875Z,1026.8
2024-01-31T11:05:16.809Z,1026.8
2024-01-31T11:06:22.965Z,1026.8
2024-01-31T11:07:29.126Z,1026.8
2024-01-31T11:08:35.290Z,1026.7
2024-01-31T11:09:40.465Z,1026.8
2024-01-31T11:10:46.629Z,1026.7
2024-01-31T11:11:52.788Z,1026.7
2024-01-31T11:12:58.947Z,1026.7
2024-01-31T11:14:05.108Z,1026.7
2024-01-31T11:15:11.275Z,1026.7
2024-01-31T11:16:17.433Z,1026.7
2024-01-31T11:17:23.601Z,1026.7
2024-01-31T11:18:29.764Z,1026.7
2024-01-31T11:19:35.917Z,1026.7
2024-01-31T11:20:42.076Z,1026.7
2024-01-31T11:21:48.250Z,1026.7
2024-01-31T11:22:54.413Z,1026.6
2024-01-31T11:23:59.588Z,1026.6
2024-01-31T11:25:05.750Z,1026.6
2024-01-31T11:26:11.891Z,1026.6
2024-01-31T11:27:18.093Z,1026.6
2024-01-31T11:28:24.215Z,1026.6
2024-01-31T11:29:30.398Z,1026.6
2024-01-31T11:30:36.595Z,1026.5
2024-01-31T11:31:42.726Z,1026.5
2024-01-31T11:32:48.869Z,1026.5
2024-01-31T11:33:55.259Z,1026.4
2024-01-31T11:35:01.218Z,1026.4
2024-01-31T11:36:07.424Z,1026.4
2024-01-31T11:37:13.663Z,1026.4
2024-01-31T11:38:18.849Z,1026.4
2024-01-31T11:39:25.110Z,1026.4
2024-01-31T11:40:31.033Z,1026.4
2024-01-31T11:41:37.537Z,1026.3
2024-01-31T11:42:43.638Z,1026.3
2024-01-31T11:43:49.792Z,1026.3
2024-01-31T11:44:55.946Z,1026.3
2024-01-31T11:46:02.008Z,1026.2
2024-01-31T11:47:08.342Z,1026.2
2024-01-31T11:48:14.167Z,1026.2
2024-01-31T11:49:20.328Z,1026.1
2024-01-31T11:50:26.497Z,1026.2
2024-01-31T11:51:32.654Z,1026.1
2024-01-31T11:52:37.834Z,1026.1
2024-01-31T11:53:44.018Z,1026
2024-01-31T11:54:50.161Z,1026
2024-01-31T11:55:56.339Z,1026
2024-01-31T11:57:02.488Z,1026
2024-01-31T11:58:08.640Z,1026
2024-01-31T11:59:14.801Z,1025.9
2024-01-31T12:00:20.975Z,1025.9
2024-01-31T12:01:27.112Z,1025.8
2024-01-31T12:02:33.295Z,1025.8
2024-01-31T12:03:39.448Z,1025.8
2024-01-31T12:04:45.610Z,1025.8
2024-01-31T12:05:51.776Z,1025.8
2024-01-31T12:06:56.952Z,1025.8
2024-01-31T12:08:03.114Z,1025.7
2024-01-31T12:09:09.264Z,1025.7
2024-01-31T12:10:15.427Z,1025.7
2024-01-31T12:11:21.621Z,1025.6
2024-01-31T12:12:27.791Z,1025.5
2024-01-31T12:13:33.932Z,1025.5
2024-01-31T12:14:40.071Z,1025.5
2024-01-31T12:15:46.249Z,1025.5
2024-01-31T12:16:52.409Z,1025.5
2024-01-31T12:17:58.574Z,1025.5
2024-01-31T12:19:04.725Z,1025.4
2024-01-31T12:20:10.893Z,1025.4
2024-01-31T12:21:16.072Z,1025.4
2024-01-31T12:22:22.230Z,1025.4
2024-01-31T12:23:28.424Z,1025.3
2024-01-31T12:24:34.562Z,1025.3
2024-01-31T12:25:40.715Z,1025.3
2024-01-31T12:26:46.856Z,1025.2
2024-01-31T12:27:53.034Z,1025.1
2024-01-31T12:28:59.209Z,1025.1
2024-01-31T12:30:05.358Z,1025.1
2024-01-31T12:31:11.516Z,1025
2024-01-31T12:32:17.667Z,1024.9
2024-01-31T12:33:23.828Z,1024.8
2024-01-31T12:34:29.988Z,1024.9
2024-01-31T12:35:35.170Z,1024.8
2024-01-31T12:36:41.338Z,1024.8
2024-01-31T12:37:47.489Z,1024.8
2024-01-31T12:38:53.655Z,1024.7
2024-01-31T12:39:59.889Z,1024.7
2024-01-31T12:41:06.005Z,1024.6
2024-01-31T12:42:12.139Z,1024.6
2024-01-31T12:43:18.291Z,1024.6
2024-01-31T12:44:24.455Z,1024.6
2024-01-31T12:45:30.620Z,1024.6
2024-01-31T12:46:36.770Z,1024.6
2024-01-31T12:47:42.961Z,1024.6
2024-01-31T12:48:49.094Z,1024.6
2024-01-31T12:49:54.284Z,1024.6
2024-01-31T12:51:00.429Z,1024.5
2024-01-31T12:52:06.600Z,1024.5
2024-01-31T12:53:12.878Z,1024.4
2024-01-31T12:54:18.926Z,1024.4
2024-01-31T12:55:25.080Z,1024.4
2024-01-31T12:56:31.241Z,1024.4
2024-01-31T12:57:37.418Z,1024.3
2024-01-31T12:58:43.579Z,1024.3
2024-01-31T12:59:49.748Z,1024.2
2024-01-31T13:00:55.886Z,1024.2
2024-01-31T13:02:02.054Z,1024.2
2024-01-31T13:03:08.213Z,1024.2
2024-01-31T13:04:13.407Z,1024.2
2024-01-31T13:05:19.552Z,1024.2
2024-01-31T13:06:25.714Z,1024.1
2024-01-31T13:07:31.874Z,1024.1
2024-01-31T13:08:38.025Z,1024
2024-01-31T13:09:44.194Z,1024
2024-01-31T13:10:50.364Z,1024
2024-01-31T13:11:56.506Z,1024
2024-01-31T13:13:02.669Z,1024
2024-01-31T13:14:08.831Z,1024
2024-01-31T13:15:14.991Z,1024
2024-01-31T13:16:21.155Z,1024
2024-01-31T13:17:27.315Z,1024
2024-01-31T13:18:32.486Z,1024.1
2024-01-31T13:19:38.654Z,1024.1
2024-01-31T13:20:44.818Z,1024
2024-01-31T13:21:50.976Z,1024
2024-01-31T13:22:57.147Z,1024.1
2024-01-31T13:24:03.304Z,1024.1
2024-01-31T13:25:09.461Z,1024
2024-01-31T13:26:15.620Z,1024
2024-01-31T13:27:21.786Z,1024
2024-01-31T13:28:27.939Z,1024
2024-01-31T13:29:34.278Z,1024
2024-01-31T13:30:40.383Z,1024
2024-01-31T13:31:46.740Z,1024
2024-01-31T13:32:52.014Z,1024
2024-01-31T13:33:57.961Z,1023.9
2024-01-31T13:35:04.120Z,1023.9
2024-01-31T13:36:10.296Z,1023.9
2024-01-31T13:37:16.469Z,1023.9
2024-01-31T13:38:22.631Z,1024
2024-01-31T13:39:27.901Z,1024
2024-01-31T13:40:33.944Z,1024
2024-01-31T13:41:40.149Z,1024
2024-01-31T13:42:46.314Z,1024
2024-01-31T13:43:52.385Z,1024
2024-01-31T13:44:58.551Z,1024
2024-01-31T13:46:04.733Z,1023.9
2024-01-31T13:47:10.905Z,1023.9
2024-01-31T13:48:17.008Z,1023.9
2024-01-31T13:49:23.132Z,1024
2024-01-31T13:50:29.268Z,1024
2024-01-31T13:51:35.384Z,1024
2024-01-31T13:52:41.602Z,1024
2024-01-31T13:53:46.791Z,1024
2024-01-31T13:54:52.910Z,1023.9